Time;durP1;ratioP1;P1;durP2;ratioP2;P2;SDS_P1;SDS_P2;PMS_P1;PMS_P2;Temp;Humidity;BMP_temperature;BMP_pressure;BME280_temperature;BME280_humidity;BME280_pressure;Samples;Min_cycle;Max_cycle;Signal;HPM_P1;HPM_P2
2022/02/13 00:02:16;;;;;;;;;25.75;21.25;;;;;5.62;54.96;101787.13;5102443;27;45614;-63
2022/02/13 00:04:41;;;;;;;;;18.00;18.00;;;;;5.63;55.58;101777.53;5102087;27;46163;-63
2022/02/13 00:07:07;;;;;;;;;26.50;21.50;;;;;5.63;55.24;101772.28;5088492;27;45456;-63
2022/02/13 00:09:32;;;;;;;;;33.25;25.25;;;;;5.60;55.11;101770.59;5097235;27;45373;-63
2022/02/13 00:12:00;;;;;;;;;30.00;24.25;;;;;5.60;55.62;101765.34;5081453;28;45389;-64
2022/02/13 00:14:27;;;;;;;;;36.25;28.75;;;;;5.58;55.31;101759.31;5091909;27;45485;-63
2022/02/13 00:16:53;;;;;;;;;32.75;25.75;;;;;5.55;55.56;101751.56;5068428;27;45414;-63
2022/02/13 00:19:18;;;;;;;;;31.25;25.25;;;;;5.53;55.46;101748.09;5091739;27;45353;-64
2022/02/13 00:21:44;;;;;;;;;28.25;21.25;;;;;5.52;55.94;101741.16;5086995;27;45326;-63
2022/02/13 00:24:09;;;;;;;;;27.25;25.50;;;;;5.48;55.70;101735.16;5091223;27;45573;-63
2022/02/13 00:26:36;;;;;;;;;29.00;24.50;;;;;5.49;56.08;101731.63;5087689;27;45268;-63
2022/02/13 00:29:01;;;;;;;;;33.75;25.00;;;;;5.49;56.04;101725.56;5081065;27;45865;-63
2022/02/13 00:31:27;;;;;;;;;28.25;24.00;;;;;5.48;56.17;101718.59;5080826;27;45434;-63
2022/02/13 00:33:52;;;;;;;;;25.75;23.50;;;;;5.47;55.66;101717.75;5080715;27;45838;-63
2022/02/13 00:36:18;;;;;;;;;22.25;19.75;;;;;5.48;55.92;101716.00;5080904;28;45437;-63
2022/02/13 00:38:43;;;;;;;;;23.50;20.50;;;;;5.47;55.80;101709.91;5081459;27;45519;-63
2022/02/13 00:41:09;;;;;;;;;32.00;21.00;;;;;5.48;56.14;101711.63;5083888;27;45561;-63
2022/02/13 00:43:34;;;;;;;;;23.75;20.00;;;;;5.47;55.46;101699.47;5080882;28;46296;-63
2022/02/13 00:45:59;;;;;;;;;33.50;25.00;;;;;5.46;56.42;101694.28;5080423;27;45453;-63
2022/02/13 00:48:25;;;;;;;;;23.00;21.00;;;;;5.45;56.66;101695.16;5081017;27;45461;-63
2022/02/13 00:50:50;;;;;;;;;27.00;21.25;;;;;5.44;55.57;101693.44;5080546;27;45341;-63
2022/02/13 00:53:16;;;;;;;;;23.50;19.75;;;;;5.40;56.07;101687.44;5080481;28;45347;-63
2022/02/13 00:55:41;;;;;;;;;30.50;22.50;;;;;5.42;55.83;101684.78;5080466;27;45335;-63
2022/02/13 00:58:07;;;;;;;;;24.50;23.25;;;;;5.40;56.09;101689.19;5081007;28;45257;-63
2022/02/13 01:00:32;;;;;;;;;29.25;23.25;;;;;5.41;55.75;101686.53;5080416;28;45403;-63
2022/02/13 01:02:58;;;;;;;;;30.50;21.25;;;;;5.42;56.59;101676.94;5080985;28;45367;-63
2022/02/13 01:05:23;;;;;;;;;27.50;23.00;;;;;5.40;55.98;101674.38;5075792;27;45282;-63
2022/02/13 01:07:49;;;;;;;;;27.50;22.75;;;;;5.41;56.14;101672.59;5092575;27;45283;-63
2022/02/13 01:10:14;;;;;;;;;21.25;19.25;;;;;5.39;55.52;101671.78;5081864;27;45471;-63
2022/02/13 01:12:40;;;;;;;;;20.25;16.75;;;;;5.40;55.37;101673.50;5081191;27;45973;-63
2022/02/13 01:15:06;;;;;;;;;23.00;22.00;;;;;5.39;55.99;101670.03;5081042;27;45173;-63
2022/02/13 01:17:31;;;;;;;;;27.75;18.25;;;;;5.40;55.15;101670.91;5081195;27;45359;-63
2022/02/13 01:19:57;;;;;;;;;25.25;21.25;;;;;5.39;55.99;101670.03;5081053;28;45496;-63
2022/02/13 01:22:22;;;;;;;;;32.25;21.00;;;;;5.38;55.66;101663.09;5081055;27;46475;-63
2022/02/13 01:24:48;;;;;;;;;20.50;15.25;;;;;5.39;55.91;101663.94;5081000;27;45476;-61
2022/02/13 01:27:13;;;;;;;;;21.00;17.00;;;;;5.37;55.96;101657.88;5089611;27;45363;-62
2022/02/13 01:29:39;;;;;;;;;23.75;20.25;;;;;5.38;55.93;101655.25;5080786;27;45447;-63
2022/02/13 01:32:05;;;;;;;;;22.50;18.75;;;;;5.38;56.02;101652.66;5080946;28;45817;-63
2022/02/13 01:34:30;;;;;;;;;29.00;22.75;;;;;5.35;56.04;101647.47;5080780;27;45403;-63
2022/02/13 01:36:55;;;;;;;;;29.75;23.00;;;;;5.34;55.21;101650.97;5073935;27;45415;-62
2022/02/13 01:39:21;;;;;;;;;30.75;24.50;;;;;5.35;55.76;101641.38;5084575;27;45552;-62
2022/02/13 01:41:49;;;;;;;;;26.00;22.25;;;;;5.33;56.25;101639.69;5080479;27;46099;-63
2022/02/13 01:44:33;;;;;;;;;23.25;21.25;;;;;5.33;55.92;101650.13;5080682;28;45490;-62
2022/02/13 01:47:03;;;;;;;;;26.00;18.50;;;;;5.33;56.22;101652.75;5080581;28;45182;-62
2022/02/13 01:49:29;;;;;;;;;29.50;16.25;;;;;5.35;55.74;101644.84;5080783;28;45271;-62
2022/02/13 01:51:57;;;;;;;;;24.25;23.00;;;;;5.32;55.26;101645.78;5080603;28;46170;-63
2022/02/13 01:54:23;;;;;;;;;28.25;21.00;;;;;5.35;55.93;101644.84;5080652;28;45283;-62
2022/02/13 01:56:49;;;;;;;;;19.25;18.75;;;;;5.35;55.05;101647.47;5080531;28;45366;-62
2022/02/13 01:59:14;;;;;;;;;18.50;14.00;;;;;5.34;55.23;101637.91;5070527;27;45240;-62
2022/02/13 02:01:41;;;;;;;;;17.25;14.75;;;;;5.36;55.26;101645.72;5085761;27;45292;-62
2022/02/13 02:04:07;;;;;;;;;20.00;16.00;;;;;5.35;55.48;101638.78;5080737;28;45520;-62
2022/02/13 02:06:33;;;;;;;;;26.50;22.25;;;;;5.35;55.53;101633.56;5094039;27;45308;-62
2022/02/13 02:09:00;;;;;;;;;25.50;18.75;;;;;5.36;56.01;101630.91;5092333;27;45382;-62
2022/02/13 02:11:26;;;;;;;;;21.50;16.50;;;;;5.33;55.24;101626.63;5079955;28;45296;-61
2022/02/13 02:13:51;;;;;;;;;20.50;16.50;;;;;5.29;55.43;101622.38;5080242;28;45331;-62
2022/02/13 02:16:17;;;;;;;;;22.25;17.50;;;;;5.28;55.79;101611.94;5080229;28;45213;-63
2022/02/13 02:18:42;;;;;;;;;20.25;18.75;;;;;5.28;55.11;101615.41;5081420;27;45217;-63
2022/02/13 02:21:09;;;;;;;;;31.75;24.25;;;;;5.28;56.57;101611.94;5083585;27;45489;-63
2022/02/13 02:23:37;;;;;;;;;26.25;21.00;;;;;5.24;55.95;101605.94;5083859;28;45216;-63
2022/02/13 02:26:03;;;;;;;;;24.75;19.00;;;;;5.24;55.98;101615.53;5087224;27;45402;-63
2022/02/13 02:28:28;;;;;;;;;21.25;17.75;;;;;5.20;56.42;101599.03;5074417;27;45485;-63
2022/02/13 02:30:54;;;;;;;;;26.50;19.25;;;;;5.21;55.51;101599.91;5088179;27;46133;-62
2022/02/13 02:33:19;;;;;;;;;20.75;18.75;;;;;5.19;55.38;101584.28;5083779;27;45515;-62
2022/02/13 02:35:47;;;;;;;;;16.00;14.50;;;;;5.20;56.52;101580.75;5083788;27;45313;-62
2022/02/13 02:38:13;;;;;;;;;25.75;23.75;;;;;5.22;55.69;101575.53;5083703;28;45632;-63
2022/02/13 02:40:40;;;;;;;;;23.75;19.50;;;;;5.21;56.24;101561.63;5084196;27;46314;-62
2022/02/13 02:43:06;;;;;;;;;31.00;20.50;;;;;5.21;56.21;101561.63;5083412;28;45231;-62
2022/02/13 02:45:31;;;;;;;;;21.00;17.50;;;;;5.19;56.44;101563.38;5083407;27;45327;-62
2022/02/13 02:47:56;;;;;;;;;30.00;23.00;;;;;5.15;56.05;101560.91;5083406;28;45453;-62
2022/02/13 02:50:22;;;;;;;;;29.00;23.25;;;;;5.12;56.53;101553.97;5083330;27;45303;-62
2022/02/13 02:52:48;;;;;;;;;22.25;20.25;;;;;5.11;56.46;101561.84;5083359;28;45441;-62
2022/02/13 02:55:13;;;;;;;;;22.75;18.25;;;;;5.07;56.18;101558.47;5083168;28;45335;-62
2022/02/13 02:57:39;;;;;;;;;25.25;20.00;;;;;5.03;56.34;101547.22;5083527;27;45323;-62
2022/02/13 03:00:06;;;;;;;;;26.50;16.50;;;;;5.02;56.72;101545.50;5083127;27;46275;-62
2022/02/13 03:02:32;;;;;;;;;24.50;19.50;;;;;5.02;56.63;101549.88;5083056;28;45264;-62
2022/02/13 03:04:58;;;;;;;;;20.00;16.25;;;;;4.97;56.58;101549.97;5083315;27;45272;-63
2022/02/13 03:07:23;;;;;;;;;25.00;18.25;;;;;4.96;56.42;101543.03;5103990;27;45442;-62
2022/02/13 03:09:49;;;;;;;;;23.75;20.50;;;;;4.95;57.09;101546.53;5087690;27;45317;-63
2022/02/13 03:12:15;;;;;;;;;26.50;18.50;;;;;4.95;56.78;101543.06;5082956;28;45212;-62
2022/02/13 03:14:40;;;;;;;;;23.50;19.00;;;;;4.94;56.94;101533.53;5082982;27;45229;-62
2022/02/13 03:17:06;;;;;;;;;20.50;17.75;;;;;4.94;56.99;101531.78;5083015;27;45478;-62
2022/02/13 03:19:36;;;;;;;;;19.75;16.50;;;;;4.92;56.46;101525.72;5082666;27;46164;-62
2022/02/13 03:22:02;;;;;;;;;22.25;18.75;;;;;4.93;56.92;101527.44;5083021;27;45271;-62
2022/02/13 03:24:28;;;;;;;;;20.25;17.75;;;;;4.90;56.90;101522.31;5082950;28;45372;-63
2022/02/13 03:26:53;;;;;;;;;20.25;19.50;;;;;4.90;56.48;101513.63;5086113;27;45644;-63
2022/02/13 03:29:19;;;;;;;;;23.75;20.25;;;;;4.87;57.07;101516.28;5082826;27;45302;-62
2022/02/13 03:31:45;;;;;;;;;24.00;21.50;;;;;4.87;57.21;101505.84;5081909;27;45338;-63
2022/02/13 03:34:10;;;;;;;;;20.25;19.00;;;;;4.87;57.48;101508.44;5082816;27;45234;-62
2022/02/13 03:36:36;;;;;;;;;27.00;20.25;;;;;4.86;57.33;101507.59;5082951;27;45384;-62
2022/02/13 03:39:04;;;;;;;;;28.25;24.75;;;;;4.84;57.19;101504.16;5083296;27;45972;-62
2022/02/13 03:41:30;;;;;;;;;28.25;19.50;;;;;4.84;57.32;101501.56;5082525;27;45371;-62
2022/02/13 03:43:55;;;;;;;;;29.25;23.75;;;;;4.84;57.77;101493.72;5082556;27;45392;-62
2022/02/13 03:46:21;;;;;;;;;29.75;27.75;;;;;4.84;57.18;101500.69;5082504;28;45240;-63
2022/02/13 03:48:46;;;;;;;;;28.00;25.00;;;;;4.82;57.60;101495.53;5082141;27;45407;-63
2022/02/13 03:51:12;;;;;;;;;29.75;24.25;;;;;4.80;57.58;101491.22;5073433;27;45287;-62
2022/02/13 03:53:37;;;;;;;;;30.25;27.00;;;;;4.79;57.37;101479.06;5086759;27;45530;-62
2022/02/13 03:56:03;;;;;;;;;28.00;26.00;;;;;4.78;57.82;101479.97;5082449;28;45399;-62
2022/02/13 03:58:28;;;;;;;;;24.50;24.00;;;;;4.74;57.40;101474.81;5082120;28;46288;-62
2022/02/13 04:00:54;;;;;;;;;34.50;27.25;;;;;4.75;57.59;101478.28;5082084;28;45460;-62
2022/02/13 04:03:19;;;;;;;;;31.25;27.25;;;;;4.72;57.80;101473.97;5082190;27;45533;-62
2022/02/13 04:05:45;;;;;;;;;27.25;21.25;;;;;4.71;57.77;101480.09;5089413;27;45154;-62
2022/02/13 04:08:10;;;;;;;;;38.50;29.75;;;;;4.68;58.12;101482.78;5100429;27;45245;-62
2022/02/13 04:10:36;;;;;;;;;22.00;21.50;;;;;4.66;58.39;101479.38;5081799;27;45215;-62
2022/02/13 04:13:01;;;;;;;;;28.00;24.25;;;;;4.65;58.39;101479.38;5082230;28;45367;-62
2022/02/13 04:15:27;;;;;;;;;33.75;24.50;;;;;4.64;58.09;101473.28;5082184;28;45347;-63
2022/02/13 04:17:53;;;;;;;;;25.25;20.50;;;;;4.64;58.41;101468.06;5081669;28;45473;-63
2022/02/13 04:20:20;;;;;;;;;32.00;26.25;;;;;4.65;58.63;101475.00;5081638;28;45316;-62
2022/02/13 04:22:46;;;;;;;;;35.00;23.00;;;;;4.64;57.97;101464.63;5081959;28;45373;-62
2022/02/13 04:25:12;;;;;;;;;30.25;24.75;;;;;4.63;58.47;101462.91;5081612;28;45367;-63
2022/02/13 04:27:38;;;;;;;;;27.75;22.50;;;;;4.63;58.05;101461.16;5085749;27;46318;-62
2022/02/13 04:30:07;;;;;;;;;24.00;21.50;;;;;4.62;58.19;101462.03;5081614;27;45181;-62
2022/02/13 04:32:33;;;;;;;;;22.50;21.00;;;;;4.61;58.69;101464.69;5081629;27;45328;-62
2022/02/13 04:34:59;;;;;;;;;29.00;21.25;;;;;4.60;58.38;101457.75;5081984;28;45447;-62
2022/02/13 04:37:24;;;;;;;;;25.75;25.00;;;;;4.58;58.13;101459.53;5081407;27;46391;-62
2022/02/13 04:39:50;;;;;;;;;25.00;21.00;;;;;4.55;57.88;101444.81;5082893;27;45409;-62
2022/02/13 04:42:16;;;;;;;;;27.50;20.50;;;;;4.53;57.79;101454.44;5080222;28;45593;-62
2022/02/13 04:44:42;;;;;;;;;33.50;26.00;;;;;4.51;58.56;101444.94;5081945;28;45472;-62
2022/02/13 04:47:08;;;;;;;;;25.50;22.00;;;;;4.50;57.78;101441.44;5081127;28;45505;-62
2022/02/13 04:49:34;;;;;;;;;24.25;19.25;;;;;4.49;58.03;101440.59;5081483;27;45220;-62
2022/02/13 04:52:00;;;;;;;;;32.50;24.50;;;;;4.48;58.02;101431.03;5081598;28;45170;-62
2022/02/13 04:54:25;;;;;;;;;23.00;20.50;;;;;4.49;58.32;101435.38;5081640;28;45236;-62
2022/02/13 04:56:51;;;;;;;;;34.00;21.25;;;;;4.46;58.53;101422.41;5081287;27;45233;-62
2022/02/13 04:59:20;;;;;;;;;22.75;18.50;;;;;4.44;58.36;101418.97;5081284;28;45354;-62
2022/02/13 05:01:46;;;;;;;;;26.50;22.50;;;;;4.45;58.21;101418.09;5081228;28;45236;-62
2022/02/13 05:04:11;;;;;;;;;22.25;20.00;;;;;4.44;58.42;101415.53;5081487;28;45240;-62
2022/02/13 05:06:37;;;;;;;;;22.50;18.75;;;;;4.45;59.09;101404.19;5095393;27;45389;-62
2022/02/13 05:09:03;;;;;;;;;24.75;23.75;;;;;4.43;58.41;101405.97;5092216;27;45229;-62
2022/02/13 05:11:29;;;;;;;;;33.00;22.25;;;;;4.41;58.17;101405.13;5080777;28;45237;-62
2022/02/13 05:13:54;;;;;;;;;27.50;24.50;;;;;4.35;58.75;101394.88;5081419;28;45151;-62
2022/02/13 05:16:20;;;;;;;;;26.25;22.75;;;;;4.33;58.75;101400.09;5080714;28;45254;-62
2022/02/13 05:18:46;;;;;;;;;26.00;19.50;;;;;4.31;58.25;101394.06;5081273;28;45240;-62
2022/02/13 05:21:11;;;;;;;;;27.00;21.25;;;;;4.30;58.25;101392.34;5081067;27;45450;-62
2022/02/13 05:23:37;;;;;;;;;29.00;22.75;;;;;4.31;59.17;101388.00;5081230;28;45373;-62
2022/02/13 05:26:03;;;;;;;;;29.75;20.75;;;;;4.30;58.28;101384.53;5084575;27;45380;-62
2022/02/13 05:28:29;;;;;;;;;26.00;21.00;;;;;4.29;59.07;101380.22;5071160;27;45669;-62
2022/02/13 05:30:54;;;;;;;;;27.25;20.75;;;;;4.28;58.88;101378.50;5085991;27;45362;-62
2022/02/13 05:33:20;;;;;;;;;24.50;17.25;;;;;4.23;58.97;101369.91;5081107;28;45481;-62
2022/02/13 05:35:45;;;;;;;;;5.00;0.00;;;;;4.25;58.69;101370.72;5080861;28;46188;-62
2022/02/13 05:38:11;;;;;;;;;25.25;22.75;;;;;4.26;58.65;101363.75;5080734;28;45233;-62
2022/02/13 05:40:36;;;;;;;;;25.50;22.50;;;;;4.25;59.52;101362.91;5082070;27;45247;-62
2022/02/13 05:43:02;;;;;;;;;31.00;24.50;;;;;4.26;59.42;101369.81;5080890;28;45616;-62
2022/02/13 05:45:27;;;;;;;;;23.75;20.75;;;;;4.24;58.91;101370.78;5080677;27;46027;-62
2022/02/13 05:47:53;;;;;;;;;28.25;21.75;;;;;4.24;58.91;101366.41;5069409;27;45932;-62
2022/02/13 05:50:18;;;;;;;;;25.50;23.00;;;;;4.23;59.20;101358.63;5086762;27;45418;-62
2022/02/13 05:52:44;;;;;;;;;28.00;19.50;;;;;4.26;58.79;101368.97;5080843;28;45215;-62
2022/02/13 05:55:09;;;;;;;;;26.25;23.75;;;;;4.25;58.71;101362.91;5083354;27;45861;-62
2022/02/13 05:57:41;;;;;;;;;23.00;19.50;;;;;4.26;58.80;101361.16;5084140;28;45282;-62
2022/02/13 06:00:08;;;;;;;;;27.75;21.25;;;;;4.25;59.09;101349.00;5083976;27;45308;-62
2022/02/13 06:02:33;;;;;;;;;28.00;22.50;;;;;4.25;58.51;101352.47;5083937;27;45183;-62
2022/02/13 06:04:59;;;;;;;;;31.00;22.75;;;;;4.24;59.14;101340.34;5084302;27;45540;-62
2022/02/13 06:07:24;;;;;;;;;29.75;25.00;;;;;4.24;58.97;101342.94;5104558;27;45370;-62
2022/02/13 06:09:50;;;;;;;;;25.25;22.50;;;;;4.26;59.15;101341.16;5088501;27;45516;-62
2022/02/13 06:12:15;;;;;;;;;26.50;22.00;;;;;4.24;59.07;101345.53;5084105;28;45219;-62
2022/02/13 06:14:41;;;;;;;;;27.00;19.75;;;;;4.26;59.03;101351.56;5083535;28;45618;-62
2022/02/13 06:17:06;;;;;;;;;26.00;20.50;;;;;4.23;58.84;101345.59;5083891;28;45556;-62
2022/02/13 06:19:32;;;;;;;;;26.25;20.50;;;;;4.24;59.42;101355.13;5083856;27;45333;-62
2022/02/13 06:21:57;;;;;;;;;29.25;21.00;;;;;4.24;58.97;101347.31;5083823;27;45523;-63
2022/02/13 06:24:23;;;;;;;;;25.00;21.00;;;;;4.25;58.64;101343.78;5083450;28;45714;-62
2022/02/13 06:26:48;;;;;;;;;30.00;23.00;;;;;4.27;58.37;101340.28;5087206;27;45338;-62
2022/02/13 06:29:14;;;;;;;;;26.00;22.50;;;;;4.30;58.13;101347.16;5083671;27;45358;-62
2022/02/13 06:31:41;;;;;;;;;23.75;18.50;;;;;4.30;57.77;101345.41;5083570;27;45411;-62
2022/02/13 06:34:06;;;;;;;;;22.75;19.00;;;;;4.31;57.83;101347.13;5083521;27;45494;-62
2022/02/13 06:36:32;;;;;;;;;19.50;18.00;;;;;4.32;57.34;101353.19;5083699;27;45251;-62
2022/02/13 06:38:58;;;;;;;;;21.50;17.75;;;;;4.32;57.48;101340.16;5084099;27;45794;-62
2022/02/13 06:41:23;;;;;;;;;22.25;19.25;;;;;4.31;57.75;101339.28;5083650;27;45451;-62
2022/02/13 06:43:49;;;;;;;;;26.00;22.25;;;;;4.31;57.81;101338.44;5083179;27;45298;-62
2022/02/13 06:46:14;;;;;;;;;22.75;20.00;;;;;4.29;58.02;101329.81;5083163;28;45229;-62
2022/02/13 06:48:40;;;;;;;;;24.00;16.75;;;;;4.27;58.21;101322.03;5083541;27;45244;-62
2022/02/13 06:51:07;;;;;;;;;20.75;19.25;;;;;4.26;57.72;101320.28;5083618;28;45505;-62
2022/02/13 06:53:32;;;;;;;;;19.25;16.25;;;;;4.26;58.16;101319.44;5083142;28;46210;-61
2022/02/13 06:55:58;;;;;;;;;24.75;17.50;;;;;4.24;57.72;101310.78;5083180;28;45331;-62
2022/02/13 06:58:23;;;;;;;;;20.75;18.00;;;;;4.23;57.57;101303.88;5083304;27;45375;-62
2022/02/13 07:00:49;;;;;;;;;19.75;17.00;;;;;4.22;58.04;101297.78;5074189;27;45611;-62
2022/02/13 07:03:14;;;;;;;;;22.50;16.00;;;;;4.22;57.71;101296.94;5097643;27;46053;-62
2022/02/13 07:05:40;;;;;;;;;24.25;16.75;;;;;4.23;57.74;101283.00;5097216;27;45330;-62
2022/02/13 07:08:05;;;;;;;;;32.50;20.00;;;;;4.22;57.95;101289.97;5088644;27;45418;-62
2022/02/13 07:10:31;;;;;;;;;22.25;18.00;;;;;4.23;57.81;101283.84;5088328;27;45578;-62
2022/02/13 07:12:56;;;;;;;;;19.25;17.75;;;;;4.23;57.63;101278.66;5095315;27;45363;-62
2022/02/13 07:15:22;;;;;;;;;19.25;17.00;;;;;4.24;57.65;101282.09;5088468;27;45291;-61
2022/02/13 07:17:47;;;;;;;;;16.75;15.50;;;;;4.24;57.42;101282.09;5083239;27;45367;-62
2022/02/13 07:20:14;;;;;;;;;21.50;19.00;;;;;4.24;57.92;101284.72;5092516;27;45210;-62
2022/02/13 07:22:39;;;;;;;;;22.50;19.75;;;;;4.24;58.04;101296.00;5082835;27;45372;-62
2022/02/13 07:25:09;;;;;;;;;20.25;17.25;;;;;4.26;57.78;101301.16;5082784;27;45282;-62
2022/02/13 07:27:36;;;;;;;;;15.50;5.50;;;;;4.24;57.35;101295.16;5087917;27;45410;-62
2022/02/13 07:30:06;;;;;;;;;24.00;19.25;;;;;4.23;58.07;101298.66;5082814;28;45548;-62
2022/02/13 07:32:33;;;;;;;;;20.75;18.50;;;;;4.24;57.40;101292.53;5082034;28;46195;-62
2022/02/13 07:34:58;;;;;;;;;20.50;16.25;;;;;4.25;61.12;101286.44;5086529;27;45304;-54
2022/02/13 07:37:24;;;;;;;;;17.25;17.25;;;;;4.45;61.75;101287.66;5100333;27;45277;-59
2022/02/13 07:39:50;;;;;;;;;22.25;22.00;;;;;4.79;59.01;101285.94;5087718;27;45368;-59
2022/02/13 07:42:16;;;;;;;;;24.25;20.00;;;;;5.12;59.97;101282.38;5082021;27;45466;-58
2022/02/13 07:44:42;;;;;;;;;20.00;17.00;;;;;5.23;56.97;101282.09;5082489;27;45493;-60
2022/02/13 07:47:08;;;;;;;;;21.00;19.25;;;;;5.19;56.83;101291.75;5090134;27;45236;-60
2022/02/13 07:49:33;;;;;;;;;24.00;16.25;;;;;5.11;56.83;101279.81;5092504;27;45559;-61
2022/02/13 07:51:59;;;;;;;;;19.25;16.00;;;;;5.06;56.31;101272.13;5093075;27;45250;-60
2022/02/13 07:54:25;;;;;;;;;23.50;21.25;;;;;5.00;56.72;101267.94;5087522;27;45449;-59
2022/02/13 07:56:51;;;;;;;;;24.25;18.50;;;;;4.97;56.79;101261.91;5071338;27;45441;-60
2022/02/13 07:59:16;;;;;;;;;24.75;17.25;;;;;4.96;56.37;101255.00;5088984;27;45651;-60
2022/02/13 08:01:41;;;;;;;;;26.25;20.50;;;;;4.95;57.09;101256.75;5081617;28;46044;-60
2022/02/13 08:04:07;;;;;;;;;27.75;20.50;;;;;4.98;56.15;101250.59;5096738;27;45361;-60
2022/02/13 08:06:33;;;;;;;;;24.50;20.50;;;;;4.99;57.08;101244.47;5102673;27;45316;-60
2022/02/13 08:08:58;;;;;;;;;23.75;19.25;;;;;5.04;56.27;101229.53;5099495;27;45382;-60
2022/02/13 08:11:24;;;;;;;;;31.75;17.00;;;;;5.10;56.77;101216.31;5099523;27;45300;-60
2022/02/13 08:13:50;;;;;;;;;26.50;20.25;;;;;5.16;56.40;101225.72;5101954;27;45346;-60
2022/02/13 08:16:15;;;;;;;;;16.25;12.25;;;;;5.20;56.45;101216.88;5101972;27;45317;-60
2022/02/13 08:18:41;;;;;;;;;26.75;22.75;;;;;5.25;56.40;101215.00;5102138;27;45318;-59
2022/02/13 08:21:08;;;;;;;;;19.00;17.00;;;;;5.29;57.32;101209.66;5102062;27;46068;-58
2022/02/13 08:23:34;;;;;;;;;22.75;20.25;;;;;5.36;56.93;101210.28;5102041;27;45357;-60
2022/02/13 08:26:00;;;;;;;;;24.75;21.50;;;;;5.42;56.97;101198.81;5084646;27;45602;-62
2022/02/13 08:28:26;;;;;;;;;23.25;17.75;;;;;5.50;57.05;101209.88;5096290;27;45594;-62
2022/02/13 08:30:52;;;;;;;;;23.50;18.00;;;;;5.56;57.16;101197.50;5091643;27;46356;-64
2022/02/13 08:33:17;;;;;;;;;25.50;20.00;;;;;5.63;57.09;101192.94;5069880;27;45366;-63
2022/02/13 08:35:43;;;;;;;;;23.75;20.75;;;;;5.69;57.06;101192.75;5082091;27;45496;-62
2022/02/13 08:38:08;;;;;;;;;27.50;24.25;;;;;5.76;57.30;101196.00;5081580;27;45489;-59
2022/02/13 08:40:35;;;;;;;;;23.00;21.00;;;;;5.81;57.26;101186.25;5083622;27;45500;-62
2022/02/13 08:43:01;;;;;;;;;24.75;20.00;;;;;5.86;57.01;101192.19;5081980;27;45356;-60
2022/02/13 08:45:31;;;;;;;;;21.75;18.75;;;;;5.91;56.89;101184.22;5093188;27;45237;-60
2022/02/13 08:47:57;;;;;;;;;22.00;22.00;;;;;5.95;57.54;101175.38;5094599;27;45637;-57
2022/02/13 08:50:24;;;;;;;;;26.25;19.75;;;;;6.01;56.92;101176.03;5081133;28;45272;-59
2022/02/13 08:52:50;;;;;;;;;19.25;15.50;;;;;6.04;57.09;101172.47;5086036;27;45399;-64
2022/02/13 08:55:17;;;;;;;;;30.75;21.75;;;;;6.07;56.98;101154.03;5089860;27;45381;-62
2022/02/13 08:57:43;;;;;;;;;28.25;22.50;;;;;6.11;56.79;101161.75;5091209;27;45265;-62
2022/02/13 09:00:11;;;;;;;;;28.00;21.50;;;;;6.11;57.20;101160.88;5083564;27;46412;-62
2022/02/13 09:02:37;;;;;;;;;23.00;21.50;;;;;6.14;57.21;101156.41;5091525;27;45465;-62
2022/02/13 09:05:04;;;;;;;;;27.00;21.25;;;;;6.20;57.84;101157.97;5085368;27;46549;-62
2022/02/13 09:07:30;;;;;;;;;25.25;21.75;;;;;6.22;57.55;101153.53;5101943;27;45511;-62
2022/02/13 09:09:56;;;;;;;;;26.25;24.75;;;;;6.28;57.44;101160.31;5101851;27;45458;-62
2022/02/13 09:12:22;;;;;;;;;19.50;15.50;;;;;6.32;57.42;101157.53;5106316;27;45786;-62
2022/02/13 09:14:48;;;;;;;;;24.75;18.25;;;;;6.40;57.29;101157.28;5107212;27;45268;-62
2022/02/13 09:17:14;;;;;;;;;26.50;24.75;;;;;6.44;57.63;101151.88;5109821;27;45566;-62
2022/02/13 09:19:40;;;;;;;;;29.75;25.75;;;;;6.49;57.91;101143.00;5109612;27;46396;-62
2022/02/13 09:22:05;;;;;;;;;25.75;19.50;;;;;6.55;57.63;101138.38;5104150;27;45623;-62
2022/02/13 09:24:31;;;;;;;;;27.00;20.25;;;;;6.58;57.04;101137.44;5108834;27;45476;-62
2022/02/13 09:26:56;;;;;;;;;22.25;18.25;;;;;6.65;57.06;101136.31;5110259;27;45436;-62
2022/02/13 09:29:22;;;;;;;;;29.25;25.00;;;;;6.69;56.94;101125.66;5109706;27;45560;-62
2022/02/13 09:31:47;;;;;;;;;31.25;25.25;;;;;6.74;56.84;101116.78;5110404;27;45481;-62
2022/02/13 09:34:15;;;;;;;;;28.00;21.50;;;;;6.78;57.71;101108.75;5114154;27;45453;-62
2022/02/13 09:36:40;;;;;;;;;28.50;24.75;;;;;6.85;57.44;101085.81;5113125;27;45286;-62
2022/02/13 09:39:06;;;;;;;;;35.75;23.00;;;;;6.95;57.55;101071.44;5113042;27;46148;-62
2022/02/13 09:41:32;;;;;;;;;28.00;21.50;;;;;7.05;57.62;101067.56;5108460;27;45260;-62
2022/02/13 09:43:57;;;;;;;;;27.25;22.75;;;;;7.15;58.33;101065.44;5113523;27;45214;-62
2022/02/13 09:46:24;;;;;;;;;25.75;19.75;;;;;7.25;58.40;101065.00;5113597;27;45219;-62
2022/02/13 09:48:51;;;;;;;;;24.75;19.50;;;;;7.35;58.56;101047.16;5112948;27;46171;-62
2022/02/13 09:51:17;;;;;;;;;30.25;21.50;;;;;7.46;58.85;101039.69;5108790;27;45359;-62
2022/02/13 09:53:43;;;;;;;;;18.75;18.50;;;;;7.59;58.48;101031.31;5108838;27;45328;-62
2022/02/13 09:56:09;;;;;;;;;27.50;19.75;;;;;7.69;58.68;101023.00;5112280;27;45505;-61
2022/02/13 09:58:34;;;;;;;;;28.00;20.00;;;;;7.78;58.58;101013.88;5112803;27;45922;-62
2022/02/13 10:01:09;;;;;;;;;18.25;16.00;;;;;7.83;58.12;101015.38;5107767;27;45252;-63
2022/02/13 10:03:41;;;;;;;;;25.50;23.50;;;;;7.89;58.76;101008.16;5087032;27;45619;-62
2022/02/13 10:06:12;;;;;;;;;23.25;18.50;;;;;7.96;58.45;100999.09;5114329;27;45604;-62
2022/02/13 10:08:52;;;;;;;;;19.00;18.00;;;;;7.99;58.88;101002.44;5110787;27;45155;-61
2022/02/13 10:11:34;;;;;;;;;20.25;18.50;;;;;8.05;58.65;100986.41;5112651;27;45361;-62
2022/02/13 10:14:10;;;;;;;;;26.50;22.00;;;;;8.10;58.85;100984.44;5111355;27;45231;-63
2022/02/13 10:16:38;;;;;;;;;23.00;19.25;;;;;8.17;58.68;100978.94;5101613;27;45351;-66
2022/02/13 10:19:06;;;;;;;;;17.00;17.00;;;;;8.26;58.80;100960.13;5091467;27;46150;-64
2022/02/13 10:21:40;;;;;;;;;18.00;15.75;;;;;8.32;58.92;100967.72;5100594;27;45264;-64
2022/02/13 10:24:32;;;;;;;;;19.75;18.75;;;;;8.45;58.95;100960.16;5099928;27;45499;-63
2022/02/13 10:26:57;;;;;;;;;25.50;20.75;;;;;8.58;58.81;100961.28;5088818;27;45384;-64
2022/02/13 10:29:29;;;;;;;;;28.25;20.75;;;;;8.65;59.02;100957.44;5083333;27;45363;-63
2022/02/13 10:32:28;;;;;;;;;22.00;22.00;;;;;8.76;59.31;100962.19;5104611;27;45378;-63
2022/02/13 10:35:04;;;;;;;;;27.75;22.50;;;;;8.88;58.82;100961.59;5103773;27;45338;-64
2022/02/13 10:37:47;;;;;;;;;21.50;17.75;;;;;8.98;58.67;100956.75;5104302;27;45470;-63
2022/02/13 10:40:16;;;;;;;;;19.25;17.50;;;;;9.08;58.38;100956.19;5104569;27;46096;-63
2022/02/13 10:42:43;;;;;;;;;27.00;19.50;;;;;9.13;58.61;100953.34;5106567;27;45192;-63
2022/02/13 10:45:23;;;;;;;;;30.00;19.50;;;;;9.17;58.67;100949.66;5110922;27;45535;-63
2022/02/13 10:47:50;;;;;;;;;22.50;18.75;;;;;9.19;58.65;100946.03;5110224;27;45461;-63
2022/02/13 10:50:17;;;;;;;;;22.25;21.75;;;;;9.21;58.97;100938.91;5108414;27;45981;-63
2022/02/13 10:52:58;;;;;;;;;27.50;22.00;;;;;9.26;58.51;100932.56;5111758;27;45267;-63
2022/02/13 10:55:25;;;;;;;;;20.25;16.25;;;;;9.32;58.42;100940.13;5103886;27;45450;-64
2022/02/13 10:57:51;;;;;;;;;25.25;19.50;;;;;9.37;58.44;100931.09;5113352;27;45566;-64
2022/02/13 11:00:18;;;;;;;;;18.75;16.75;;;;;9.42;58.50;100933.50;5103413;27;46304;-64
2022/02/13 11:02:48;;;;;;;;;21.50;17.75;;;;;9.48;58.63;100920.03;5107297;27;45501;-64
2022/02/13 11:05:16;;;;;;;;;25.75;18.75;;;;;9.55;58.83;100910.03;5109623;27;45327;-63
2022/02/13 11:07:45;;;;;;;;;22.00;17.75;;;;;9.60;58.56;100906.22;5110748;27;45371;-64
2022/02/13 11:10:25;;;;;;;;;26.25;20.25;;;;;9.66;59.09;100902.44;5104479;27;45465;-62
2022/02/13 11:12:54;;;;;;;;;22.00;16.50;;;;;9.73;58.79;100901.19;5108062;27;45392;-64
2022/02/13 11:15:27;;;;;;;;;27.50;20.50;;;;;9.79;58.78;100896.47;5112154;27;45252;-65